createdAt,value
2022-10-08T00:00:47.534Z,76976.72
2022-10-08T00:03:14.796Z,77003.44
2022-10-08T00:05:43.096Z,76991.09
2022-10-08T00:08:10.216Z,76993.16
2022-10-08T00:10:37.982Z,76980.81
2022-10-08T00:13:05.061Z,76978.75
2022-10-08T00:15:35.903Z,76982.88
2022-10-08T00:18:03.466Z,76991.09
2022-10-08T00:20:30.746Z,76987.00
2022-10-08T00:22:57.816Z,76982.88
2022-10-08T00:25:24.962Z,76991.09
2022-10-08T00:27:52.002Z,76978.75
2022-10-08T00:30:19.022Z,76987.00
2022-10-08T00:32:46.339Z,76999.31
2022-10-08T00:35:14.553Z,76995.22
2022-10-08T00:37:42.818Z,77015.78
2022-10-08T00:40:10.083Z,77007.53
2022-10-08T00:42:38.463Z,77015.78
2022-10-08T00:45:06.417Z,77040.44
2022-10-08T00:47:33.514Z,77036.34
2022-10-08T00:50:00.649Z,77028.09
2022-10-08T00:52:28.665Z,77061.00
2022-10-08T00:54:56.424Z,77054.84
2022-10-08T00:57:23.504Z,77048.66
2022-10-08T00:59:50.578Z,77050.72
2022-10-08T01:02:19.367Z,77040.44
2022-10-08T01:04:46.461Z,77038.38
2022-10-08T01:07:14.359Z,77050.72
2022-10-08T01:09:42.912Z,77061.00
2022-10-08T01:12:33.406Z,77056.88
2022-10-08T01:15:01.998Z,77073.34
2022-10-08T01:17:38.388Z,77079.50
2022-10-08T01:20:21.035Z,77087.72
2022-10-08T01:22:51.073Z,77081.56
2022-10-08T01:25:33.327Z,77093.91
2022-10-08T01:28:00.965Z,77100.06
2022-10-08T01:30:28.091Z,77091.84
2022-10-08T01:33:12.343Z,77085.66
2022-10-08T01:35:44.343Z,77081.56
2022-10-08T01:38:12.692Z,77089.78
2022-10-08T01:40:39.821Z,77089.78
2022-10-08T01:43:07.295Z,77110.34
2022-10-08T01:45:35.767Z,77093.91
2022-10-08T01:48:04.484Z,77118.56
2022-10-08T01:50:38.681Z,77110.34
2022-10-08T01:53:07.273Z,77124.72
2022-10-08T01:55:41.401Z,77122.69
2022-10-08T01:58:09.769Z,77130.91
2022-10-08T02:00:36.828Z,77139.13
2022-10-08T02:03:04.103Z,77135.03
2022-10-08T02:05:32.259Z,77147.34
2022-10-08T02:07:59.945Z,77151.47
2022-10-08T02:10:29.464Z,77155.56
2022-10-08T02:12:56.494Z,77143.25
2022-10-08T02:15:27.963Z,77151.47
2022-10-08T02:18:06.963Z,77159.69
2022-10-08T02:20:35.878Z,77147.34
2022-10-08T02:23:02.867Z,77149.41
2022-10-08T02:25:48.525Z,77151.47
2022-10-08T02:28:19.020Z,77163.81
2022-10-08T02:30:50.764Z,77155.56
2022-10-08T02:33:30.703Z,77159.69
2022-10-08T02:35:58.234Z,77159.69
2022-10-08T02:38:43.208Z,77182.31
2022-10-08T02:41:10.217Z,77184.34
2022-10-08T02:43:37.633Z,77176.13
2022-10-08T02:46:10.513Z,77172.03
2022-10-08T02:48:38.204Z,77167.91
2022-10-08T02:51:06.208Z,77172.03
2022-10-08T02:53:36.286Z,77172.03
2022-10-08T02:56:20.600Z,77178.19
2022-10-08T02:58:47.629Z,77180.25
2022-10-08T03:01:40.759Z,77184.34
2022-10-08T03:04:12.963Z,77180.25
2022-10-08T03:06:40.203Z,77192.59
2022-10-08T03:09:07.324Z,77196.69
2022-10-08T03:11:34.475Z,77184.34
2022-10-08T03:14:05.014Z,77184.34
2022-10-08T03:16:34.980Z,77174.09
2022-10-08T03:19:09.180Z,77196.69
2022-10-08T03:21:37.316Z,77200.81
2022-10-08T03:24:04.490Z,77188.47
2022-10-08T03:26:31.800Z,77192.59
2022-10-08T03:28:58.977Z,77188.47
2022-10-08T03:31:25.990Z,77190.53
2022-10-08T03:33:53.615Z,77188.47
2022-10-08T03:36:21.437Z,77180.25
2022-10-08T03:38:48.708Z,77196.69
2022-10-08T03:41:15.963Z,77190.53
2022-10-08T03:43:43.036Z,77184.34
2022-10-08T03:46:10.588Z,77188.47
2022-10-08T03:48:38.481Z,77184.34
2022-10-08T03:51:07.893Z,77176.13
2022-10-08T03:53:35.504Z,77178.19
2022-10-08T03:56:06.193Z,77180.25
2022-10-08T03:58:33.265Z,77176.13
2022-10-08T04:01:06.203Z,77172.03
2022-10-08T04:03:34.486Z,77180.25
2022-10-08T04:06:01.645Z,77155.56
2022-10-08T04:08:28.833Z,77151.47
2022-10-08T04:10:56.348Z,77167.91
2022-10-08T04:13:23.412Z,77151.47
2022-10-08T04:15:53.522Z,77143.25
2022-10-08T04:18:20.719Z,77147.34
2022-10-08T04:20:47.783Z,77122.69
2022-10-08T04:23:14.955Z,77122.69
2022-10-08T04:25:48.945Z,77130.91
2022-10-08T04:28:16.010Z,77118.56
2022-10-08T04:30:43.145Z,77116.50
2022-10-08T04:33:10.247Z,77098.00
2022-10-08T04:35:37.903Z,77085.66
2022-10-08T04:38:04.929Z,77098.00
2022-10-08T04:40:31.960Z,77091.84
2022-10-08T04:42:59.208Z,77091.84
2022-10-08T04:45:26.340Z,77081.56
2022-10-08T04:47:53.362Z,77073.34
2022-10-08T04:50:20.670Z,77069.22
2022-10-08T04:52:48.043Z,77075.38
2022-10-08T04:55:15.328Z,77069.22
2022-10-08T04:57:42.757Z,77044.56
2022-10-08T05:00:18.784Z,77052.78
2022-10-08T05:02:46.581Z,77036.34
2022-10-08T05:05:14.810Z,77052.78
2022-10-08T05:07:42.401Z,77048.66
2022-10-08T05:10:09.911Z,77044.56
2022-10-08T05:12:36.957Z,77046.59
2022-10-08T05:15:07.709Z,77056.88
2022-10-08T05:17:34.975Z,77036.34
2022-10-08T05:20:11.069Z,77024.00
2022-10-08T05:22:40.638Z,77009.59
2022-10-08T05:25:07.967Z,77005.50
2022-10-08T05:27:35.049Z,77003.44
2022-10-08T05:30:02.910Z,76980.81
2022-10-08T05:32:30.208Z,76987.00
2022-10-08T05:34:57.233Z,76987.00
2022-10-08T05:37:24.281Z,76956.16
2022-10-08T05:39:51.760Z,76954.09
2022-10-08T05:42:18.804Z,76947.94
2022-10-08T05:44:45.895Z,76908.88
2022-10-08T05:47:13.070Z,76884.19
2022-10-08T05:49:40.165Z,76871.84
2022-10-08T05:52:07.340Z,76859.53
2022-10-08T05:54:34.388Z,76836.91
2022-10-08T05:57:01.417Z,76832.78
2022-10-08T05:59:28.442Z,76834.84
2022-10-08T06:01:55.486Z,76818.41
2022-10-08T06:04:22.677Z,76793.75
2022-10-08T06:06:49.770Z,76812.25
2022-10-08T06:09:18.228Z,76789.63
2022-10-08T06:11:47.593Z,76789.63
2022-10-08T06:14:16.852Z,76767.00
2022-10-08T06:16:43.983Z,76764.97
2022-10-08T06:19:12.234Z,76723.84
2022-10-08T06:21:40.007Z,76719.72
2022-10-08T06:24:07.836Z,76707.41
2022-10-08T06:26:36.495Z,76682.72
2022-10-08T06:29:05.724Z,76647.78
2022-10-08T06:31:34.197Z,76633.38
2022-10-08T06:34:04.186Z,76641.59
2022-10-08T06:36:31.748Z,76612.84
2022-10-08T06:38:59.447Z,76592.28
2022-10-08T06:41:26.872Z,76563.50
2022-10-08T06:43:55.660Z,76551.16
2022-10-08T06:46:22.834Z,76522.38
2022-10-08T06:48:51.281Z,76505.94
2022-10-08T06:51:18.422Z,76501.81
2022-10-08T06:53:48.118Z,76481.28
2022-10-08T06:56:15.399Z,76460.72
2022-10-08T06:58:43.801Z,76448.38
2022-10-08T07:01:12.504Z,76438.09
2022-10-08T07:03:39.770Z,76434.00
2022-10-08T07:06:09.102Z,76394.94
2022-10-08T07:08:36.369Z,76296.28
2022-10-08T07:11:13.506Z,76144.16
2022-10-08T07:13:40.582Z,75782.44
2022-10-08T07:16:16.797Z,75515.25
2022-10-08T07:18:50.142Z,75309.78
2022-10-08T07:21:17.767Z,75091.97
2022-10-08T07:23:44.879Z,75145.38
2022-10-08T07:26:15.807Z,75182.38
2022-10-08T07:28:44.739Z,75167.97
2022-10-08T07:31:15.634Z,74985.09
2022-10-08T07:33:43.681Z,74927.56
2022-10-08T07:36:14.946Z,75046.75
2022-10-08T07:38:43.090Z,75124.84
2022-10-08T07:41:10.658Z,75287.16
2022-10-08T07:43:41.069Z,75272.78
2022-10-08T07:46:08.731Z,75352.91
2022-10-08T07:48:39.148Z,75309.78
2022-10-08T07:51:07.689Z,75135.09
2022-10-08T07:53:34.765Z,74985.09
2022-10-08T07:56:01.790Z,74894.69
2022-10-08T07:58:29.086Z,75059.06
2022-10-08T08:00:57.182Z,75079.63
2022-10-08T08:03:24.416Z,75094.00
2022-10-08T08:05:51.577Z,74937.84
2022-10-08T08:08:18.641Z,74791.97
2022-10-08T08:10:45.690Z,74865.94
2022-10-08T08:13:12.741Z,74837.16
2022-10-08T08:15:39.879Z,74611.16
2022-10-08T08:18:06.930Z,74467.34
2022-10-08T08:20:33.963Z,74615.28
2022-10-08T08:23:01.210Z,74755.00
2022-10-08T08:25:28.716Z,74582.41
2022-10-08T08:27:55.745Z,74459.16
2022-10-08T08:30:22.798Z,74422.16
2022-10-08T08:32:50.586Z,74481.75
2022-10-08T08:35:17.845Z,74631.72
2022-10-08T08:37:45.135Z,74654.31
2022-10-08T08:40:12.149Z,74837.16
2022-10-08T08:42:39.133Z,74750.88
2022-10-08T08:45:45.370Z,74666.66
2022-10-08T08:48:18.816Z,74549.53
2022-10-08T08:50:48.779Z,74512.56
2022-10-08T08:53:16.250Z,74666.66
2022-10-08T08:55:44.127Z,74600.91
2022-10-08T08:58:23.291Z,74619.38
2022-10-08T09:00:57.035Z,74785.81
2022-10-08T09:03:33.807Z,74787.88
2022-10-08T09:06:02.806Z,74709.78
2022-10-08T09:08:31.476Z,74485.84
2022-10-08T09:11:02.755Z,74436.53
2022-10-08T09:13:37.508Z,74303.00
2022-10-08T09:16:04.869Z,74118.13
2022-10-08T09:18:33.047Z,74325.59
2022-10-08T09:21:00.198Z,74475.56
2022-10-08T09:23:27.299Z,74405.72
2022-10-08T09:26:01.658Z,74311.22
2022-10-08T09:28:48.095Z,74372.84
2022-10-08T09:31:18.722Z,74253.72
2022-10-08T09:33:46.494Z,74196.19
2022-10-08T09:36:13.550Z,74344.09
2022-10-08T09:38:41.306Z,74261.94
2022-10-08T09:41:11.636Z,74229.06
2022-10-08T09:43:39.505Z,74303.00
2022-10-08T09:46:11.677Z,74163.31
2022-10-08T09:48:39.683Z,73959.97
2022-10-08T09:51:16.407Z,74183.88
2022-10-08T09:53:58.317Z,74159.22
2022-10-08T09:56:27.789Z,74206.47
2022-10-08T09:58:56.191Z,74171.53
2022-10-08T10:01:27.410Z,74132.50
2022-10-08T10:03:57.798Z,74101.69
2022-10-08T10:06:27.894Z,73892.19
2022-10-08T10:08:59.760Z,74097.59
2022-10-08T10:11:28.635Z,74151.00
2022-10-08T10:13:56.068Z,74200.28
2022-10-08T10:16:36.128Z,74118.13
2022-10-08T10:19:08.788Z,74070.88
2022-10-08T10:21:37.643Z,74099.63
2022-10-08T10:24:08.712Z,74111.97
2022-10-08T10:26:36.748Z,74146.88
2022-10-08T10:29:06.586Z,74097.59
2022-10-08T10:31:34.495Z,74072.94
2022-10-08T10:34:01.517Z,73871.63
2022-10-08T10:36:32.519Z,73976.41
2022-10-08T10:39:17.930Z,74151.00
2022-10-08T10:41:50.961Z,74085.25
2022-10-08T10:44:22.925Z,74130.44
2022-10-08T10:46:51.705Z,74233.16
2022-10-08T10:49:19.581Z,74130.44
2022-10-08T10:51:49.642Z,74278.34
2022-10-08T10:54:21.011Z,74372.84
2022-10-08T10:56:56.132Z,74303.00
2022-10-08T10:59:32.848Z,74268.09
2022-10-08T11:02:09.336Z,74372.84
2022-10-08T11:04:36.416Z,74315.34
2022-10-08T11:07:23.286Z,74381.06
2022-10-08T11:09:50.975Z,74520.78
2022-10-08T11:12:26.516Z,74553.66
2022-10-08T11:15:13.310Z,74413.94
2022-10-08T11:17:43.358Z,74705.69
2022-10-08T11:20:10.522Z,74543.38
2022-10-08T11:23:16.954Z,74389.28
2022-10-08T11:26:15.369Z,74389.28
2022-10-08T11:28:49.313Z,74401.63
2022-10-08T11:31:19.257Z,74455.03
2022-10-08T11:33:46.749Z,74615.28
2022-10-08T11:36:33.242Z,74496.13
2022-10-08T11:39:06.656Z,74500.22
2022-10-08T11:41:36.536Z,74561.88
2022-10-08T11:44:03.958Z,74502.28
2022-10-08T11:46:31.933Z,74652.25
2022-10-08T11:49:00.892Z,74617.34
2022-10-08T11:51:28.985Z,74668.69
2022-10-08T11:54:08.260Z,74623.50
2022-10-08T11:56:42.568Z,74664.59
2022-10-08T11:59:17.527Z,74648.16
2022-10-08T12:01:54.809Z,74615.28
2022-10-08T12:04:23.257Z,74635.81
2022-10-08T12:06:59.922Z,74668.69
2022-10-08T12:09:26.991Z,74718.00
2022-10-08T12:11:55.226Z,74796.09
2022-10-08T12:14:22.656Z,74763.22
2022-10-08T12:16:55.868Z,74771.44
2022-10-08T12:19:35.479Z,74738.56
2022-10-08T12:22:03.561Z,74765.25
2022-10-08T12:24:39.571Z,74709.78
2022-10-08T12:27:22.209Z,74713.91
2022-10-08T12:30:01.214Z,74763.22
2022-10-08T12:32:43.821Z,74755.00
2022-10-08T12:35:25.988Z,74755.00
2022-10-08T12:38:07.632Z,74674.84
2022-10-08T12:40:35.290Z,74609.13
2022-10-08T12:43:23.473Z,74611.16
2022-10-08T12:46:09.276Z,74578.31
2022-10-08T12:48:36.498Z,74627.59
2022-10-08T12:51:03.563Z,74594.75
2022-10-08T12:53:30.654Z,74666.66
2022-10-08T12:55:57.720Z,74611.16
2022-10-08T12:58:25.735Z,74607.06
2022-10-08T13:00:55.336Z,74701.56
2022-10-08T13:03:22.722Z,74685.13
2022-10-08T13:05:49.880Z,74574.19
2022-10-08T13:08:17.784Z,74537.22
2022-10-08T13:10:48.354Z,74557.75
2022-10-08T13:13:30.696Z,74629.66
2022-10-08T13:16:01.002Z,74730.34
2022-10-08T13:18:28.808Z,74656.38
2022-10-08T13:20:57.156Z,74718.00
2022-10-08T13:23:25.071Z,74697.47
2022-10-08T13:25:52.207Z,74678.97
2022-10-08T13:28:41.742Z,74709.78
2022-10-08T13:31:18.944Z,74763.22
2022-10-08T13:33:46.314Z,74755.00
2022-10-08T13:36:13.387Z,74757.03
2022-10-08T13:38:40.464Z,74730.34
2022-10-08T13:41:07.574Z,74748.81
2022-10-08T13:43:34.653Z,74730.34
2022-10-08T13:46:01.899Z,74697.47
2022-10-08T13:48:29.881Z,74746.78
2022-10-08T13:50:57.620Z,74783.75
2022-10-08T13:53:24.759Z,74713.91
2022-10-08T13:55:54.345Z,74623.50
2022-10-08T13:58:21.561Z,74687.19
2022-10-08T14:00:48.974Z,74693.34
2022-10-08T14:03:16.310Z,74598.84
2022-10-08T14:05:44.434Z,74545.44
2022-10-08T14:08:38.504Z,74561.88
2022-10-08T14:11:07.810Z,74565.97
2022-10-08T14:13:36.155Z,74590.63
2022-10-08T14:16:03.239Z,74658.44
2022-10-08T14:18:33.958Z,74713.91
2022-10-08T14:21:01.304Z,74709.78
2022-10-08T14:23:28.664Z,74713.91
2022-10-08T14:25:55.692Z,74750.88
2022-10-08T14:28:22.806Z,74816.63
2022-10-08T14:30:49.996Z,75001.53
2022-10-08T14:33:17.202Z,75141.28
2022-10-08T14:35:44.258Z,75278.94
2022-10-08T14:38:12.400Z,75293.34
2022-10-08T14:40:40.498Z,75315.94
2022-10-08T14:43:07.553Z,75379.63
2022-10-08T14:45:34.657Z,75396.06
2022-10-08T14:48:01.801Z,75457.72
2022-10-08T14:50:28.959Z,75474.16
2022-10-08T14:52:56.079Z,75478.28
2022-10-08T14:55:23.339Z,75511.16
2022-10-08T14:57:50.656Z,75531.72
2022-10-08T15:00:17.741Z,75564.59
2022-10-08T15:02:45.055Z,75597.47
2022-10-08T15:05:12.438Z,75620.06
2022-10-08T15:07:42.799Z,75593.34
2022-10-08T15:10:10.039Z,75607.75
2022-10-08T15:12:37.161Z,75605.69
2022-10-08T15:15:04.631Z,75622.13
2022-10-08T15:17:31.873Z,75659.13
2022-10-08T15:19:58.898Z,75661.19
2022-10-08T15:22:25.997Z,75700.22
2022-10-08T15:24:53.014Z,75716.66
2022-10-08T15:27:21.122Z,75700.22
2022-10-08T15:29:48.985Z,75708.44
2022-10-08T15:32:16.228Z,75724.88
2022-10-08T15:34:44.631Z,75724.88
2022-10-08T15:37:11.956Z,75741.31
2022-10-08T15:39:39.029Z,75790.66
2022-10-08T15:42:06.213Z,75778.31
2022-10-08T15:44:33.728Z,75782.44
2022-10-08T15:47:06.142Z,75790.66
2022-10-08T15:49:33.360Z,75774.22
2022-10-08T15:52:00.488Z,75768.03
2022-10-08T15:54:27.537Z,75782.44
2022-10-08T15:56:54.851Z,75786.53
2022-10-08T15:59:21.881Z,75790.66
2022-10-08T16:01:49.154Z,75790.66
2022-10-08T16:04:16.183Z,75839.97
2022-10-08T16:06:46.687Z,75819.44
2022-10-08T16:09:14.271Z,75852.31
2022-10-08T16:11:42.178Z,75856.41
2022-10-08T16:14:16.067Z,75839.97
2022-10-08T16:16:43.426Z,75831.75
2022-10-08T16:19:17.264Z,75829.69
2022-10-08T16:21:46.297Z,75858.47
2022-10-08T16:24:13.381Z,75860.53
2022-10-08T16:26:42.357Z,75844.09
2022-10-08T16:29:11.147Z,75874.91
2022-10-08T16:31:39.338Z,75881.09
2022-10-08T16:34:07.401Z,75897.53
2022-10-08T16:36:36.737Z,75881.09
2022-10-08T16:39:04.232Z,75905.75
2022-10-08T16:41:31.869Z,75893.41
2022-10-08T16:44:00.355Z,75897.53
2022-10-08T16:46:28.307Z,75885.19
2022-10-08T16:48:56.444Z,75922.19
2022-10-08T16:51:23.896Z,75932.47
2022-10-08T16:53:51.431Z,75946.84
2022-10-08T16:56:18.751Z,75932.47
2022-10-08T16:58:45.860Z,75928.34
2022-10-08T17:01:13.005Z,75942.75
2022-10-08T17:03:40.581Z,75950.97
2022-10-08T17:06:07.690Z,75977.69
2022-10-08T17:08:35.450Z,75973.56
2022-10-08T17:11:03.157Z,75977.69
2022-10-08T17:13:30.180Z,75983.84
2022-10-08T17:16:03.720Z,75979.75
2022-10-08T17:18:33.021Z,75981.78
2022-10-08T17:21:02.797Z,76006.47
2022-10-08T17:23:34.236Z,75998.22
2022-10-08T17:26:04.348Z,76010.56
2022-10-08T17:28:32.153Z,76012.63
2022-10-08T17:30:59.620Z,76020.84
2022-10-08T17:33:27.121Z,76024.94
2022-10-08T17:36:01.067Z,76045.50
2022-10-08T17:38:28.326Z,76041.41
2022-10-08T17:40:55.675Z,76064.00
2022-10-08T17:43:23.128Z,76053.72
2022-10-08T17:45:50.408Z,76047.56
2022-10-08T17:48:17.573Z,76043.44
2022-10-08T17:50:45.390Z,76049.63
2022-10-08T17:53:12.476Z,76066.06
2022-10-08T17:55:39.482Z,76061.94
2022-10-08T17:58:07.944Z,76053.72
2022-10-08T18:00:35.240Z,76061.94
2022-10-08T18:03:02.406Z,76059.91
2022-10-08T18:05:29.529Z,76068.13
2022-10-08T18:07:56.761Z,76066.06
2022-10-08T18:10:23.811Z,76098.94
2022-10-08T18:12:53.337Z,76115.38
2022-10-08T18:15:20.356Z,76107.16
2022-10-08T18:17:49.065Z,76103.06
2022-10-08T18:20:16.146Z,76123.63
2022-10-08T18:22:43.570Z,76160.59
2022-10-08T18:25:12.207Z,76150.34
2022-10-08T18:27:39.325Z,76189.38
2022-10-08T18:30:07.128Z,76191.44
2022-10-08T18:32:34.396Z,76193.50
2022-10-08T18:35:01.428Z,76189.38
2022-10-08T18:37:28.552Z,76201.72
2022-10-08T18:39:55.591Z,76189.38
2022-10-08T18:42:23.546Z,76201.72
2022-10-08T18:44:50.973Z,76187.31
2022-10-08T18:47:18.025Z,76189.38
2022-10-08T18:49:45.105Z,76214.06
2022-10-08T18:52:12.811Z,76249.00
2022-10-08T18:54:39.908Z,76238.72
2022-10-08T18:57:06.989Z,76209.94
2022-10-08T18:59:34.902Z,76238.72
2022-10-08T19:02:02.958Z,76259.28
2022-10-08T19:04:30.196Z,76226.38
2022-10-08T19:06:57.286Z,76255.16
2022-10-08T19:09:24.318Z,76242.81
2022-10-08T19:11:51.975Z,76228.44
2022-10-08T19:14:20.307Z,76234.59
2022-10-08T19:16:47.478Z,76201.72
2022-10-08T19:19:15.751Z,76191.44
2022-10-08T19:21:42.838Z,76205.81
2022-10-08T19:24:13.845Z,76203.78
2022-10-08T19:26:42.285Z,76191.44
2022-10-08T19:29:16.348Z,76193.50
2022-10-08T19:31:43.626Z,76185.28
2022-10-08T19:34:11.938Z,76181.16
2022-10-08T19:36:39.602Z,76183.22
2022-10-08T19:39:07.514Z,76168.84
2022-10-08T19:41:34.524Z,76181.16
2022-10-08T19:44:03.365Z,76199.66
2022-10-08T19:46:31.099Z,76185.28
2022-10-08T19:48:58.879Z,76185.28
2022-10-08T19:51:26.663Z,76189.38
2022-10-08T19:53:54.412Z,76179.09
2022-10-08T19:56:21.484Z,76185.28
2022-10-08T19:58:49.674Z,76201.72
2022-10-08T20:01:18.230Z,76207.88
2022-10-08T20:03:45.296Z,76218.16
2022-10-08T20:06:21.702Z,76209.94
2022-10-08T20:08:50.585Z,76201.72
2022-10-08T20:11:18.364Z,76214.06
2022-10-08T20:13:45.798Z,76222.28
2022-10-08T20:16:17.048Z,76246.94
2022-10-08T20:19:05.649Z,76230.50
2022-10-08T20:21:34.573Z,76244.88
2022-10-08T20:24:01.713Z,76265.44
2022-10-08T20:26:29.645Z,76271.59
2022-10-08T20:28:57.657Z,76263.38
2022-10-08T20:31:25.885Z,76271.59
2022-10-08T20:34:00.086Z,76267.50
2022-10-08T20:36:27.545Z,76271.59
2022-10-08T20:38:54.669Z,76271.59
2022-10-08T20:41:23.582Z,76265.44
2022-10-08T20:43:56.624Z,76277.78
2022-10-08T20:46:23.727Z,76265.44
2022-10-08T20:48:51.178Z,76279.81
2022-10-08T20:51:19.426Z,76269.53
2022-10-08T20:53:50.122Z,76275.72
2022-10-08T20:56:17.229Z,76279.81
2022-10-08T20:58:44.439Z,76279.81
2022-10-08T21:01:18.593Z,76271.59
2022-10-08T21:03:46.986Z,76269.53
2022-10-08T21:06:19.821Z,76263.38
2022-10-08T21:08:49.210Z,76259.28
2022-10-08T21:11:17.392Z,76275.72
2022-10-08T21:13:44.499Z,76259.28
2022-10-08T21:16:14.657Z,76283.94
2022-10-08T21:18:41.898Z,76283.94
2022-10-08T21:21:13.104Z,76316.81
2022-10-08T21:23:40.558Z,76302.44
2022-10-08T21:26:12.291Z,76288.03
2022-10-08T21:28:39.593Z,76292.16
2022-10-08T21:31:07.153Z,76294.22
2022-10-08T21:33:35.219Z,76316.81
2022-10-08T21:36:02.641Z,76320.94
2022-10-08T21:38:29.920Z,76320.94
2022-10-08T21:40:57.291Z,76312.72
2022-10-08T21:43:24.396Z,76304.50
2022-10-08T21:45:58.248Z,76308.59
2022-10-08T21:48:25.571Z,76296.28
2022-10-08T21:51:11.977Z,76304.50
2022-10-08T21:53:41.578Z,76316.81
2022-10-08T21:56:13.448Z,76300.38
2022-10-08T21:58:41.293Z,76277.78
2022-10-08T22:01:08.734Z,76304.50
2022-10-08T22:03:36.019Z,76300.38
2022-10-08T22:06:04.268Z,76292.16
2022-10-08T22:08:31.928Z,76296.28
2022-10-08T22:11:00.266Z,76294.22
2022-10-08T22:13:29.165Z,76292.16
2022-10-08T22:15:58.593Z,76283.94
2022-10-08T22:18:26.499Z,76267.50
2022-10-08T22:20:54.546Z,76267.50
2022-10-08T22:23:21.888Z,76267.50
2022-10-08T22:25:55.680Z,76259.28
2022-10-08T22:28:22.884Z,76273.66
2022-10-08T22:30:49.929Z,76259.28
2022-10-08T22:33:16.970Z,76259.28
2022-10-08T22:35:44.038Z,76267.50
2022-10-08T22:38:11.221Z,76263.38
2022-10-08T22:40:38.493Z,76257.22
2022-10-08T22:43:05.628Z,76246.94
2022-10-08T22:45:35.918Z,76269.53
2022-10-08T22:48:03.308Z,76275.72
2022-10-08T22:50:30.342Z,76271.59
2022-10-08T22:52:57.419Z,76277.78
2022-10-08T22:55:24.643Z,76279.81
2022-10-08T22:57:51.738Z,76294.22
2022-10-08T23:00:18.790Z,76300.38
2022-10-08T23:02:45.974Z,76300.38
2022-10-08T23:05:13.246Z,76286.00
2022-10-08T23:07:41.185Z,76292.16
2022-10-08T23:10:08.370Z,76296.28
2022-10-08T23:12:35.457Z,76296.28
2022-10-08T23:15:02.512Z,76308.59
2022-10-08T23:17:30.633Z,76323.00
2022-10-08T23:19:57.678Z,76320.94
2022-10-08T23:22:25.198Z,76325.03
2022-10-08T23:24:52.229Z,76341.50
2022-10-08T23:27:19.471Z,76325.03
2022-10-08T23:29:46.533Z,76329.16
2022-10-08T23:32:14.654Z,76345.59
2022-10-08T23:34:41.790Z,76345.59
2022-10-08T23:37:08.810Z,76335.31
2022-10-08T23:39:36.353Z,76325.03
2022-10-08T23:42:03.507Z,76341.50
2022-10-08T23:44:30.692Z,76333.28
2022-10-08T23:46:57.781Z,76343.53
2022-10-08T23:49:24.890Z,76347.66
2022-10-08T23:51:51.982Z,76353.81
2022-10-08T23:54:19.162Z,76333.28
2022-10-08T23:56:46.208Z,76349.72
2022-10-08T23:59:13.300Z,76341.50
